createdAt,value
2019-01-19T00:00:43.210Z,1.70
2019-01-19T00:04:41.536Z,1.50
2019-01-19T00:08:06.894Z,1.52
2019-01-19T00:12:07.700Z,1.37
2019-01-19T00:15:23.316Z,1.67
2019-01-19T00:19:15.981Z,1.35
2019-01-19T00:22:50.607Z,1.55
2019-01-19T00:26:49.966Z,1.50
2019-01-19T00:30:43.967Z,1.52
2019-01-19T00:34:16.554Z,1.27
2019-01-19T00:37:38.102Z,1.32
2019-01-19T00:41:17.051Z,1.45
2019-01-19T00:44:56.277Z,1.52
2019-01-19T00:48:31.462Z,1.37
2019-01-19T00:52:13.849Z,1.45
2019-01-19T00:55:46.413Z,1.20
2019-01-19T00:59:12.759Z,1.32
2019-01-19T01:03:04.558Z,1.30
2019-01-19T01:06:45.879Z,1.15
2019-01-19T01:10:18.981Z,1.40
2019-01-19T01:13:53.817Z,1.32
2019-01-19T01:17:52.826Z,1.30
2019-01-19T01:21:16.703Z,1.40
2019-01-19T01:24:31.603Z,1.30
2019-01-19T01:28:21.254Z,1.27
2019-01-19T01:32:09.716Z,1.20
2019-01-19T01:36:04.718Z,1.30
2019-01-19T01:39:55.802Z,1.47
2019-01-19T01:43:46.959Z,1.25
2019-01-19T01:47:57.837Z,1.22
2019-01-19T01:52:14.737Z,1.07
2019-01-19T01:55:25.547Z,1.12
2019-01-19T01:59:15.383Z,1.52
2019-01-19T02:02:47.085Z,1.37
2019-01-19T02:06:01.038Z,1.20
2019-01-19T02:09:43.661Z,1.30
2019-01-19T02:13:32.147Z,1.37
2019-01-19T02:16:39.363Z,1.32
2019-01-19T02:20:07.233Z,1.40
2019-01-19T02:23:34.289Z,1.30
2019-01-19T02:27:29.150Z,1.17
2019-01-19T02:31:30.046Z,1.40
2019-01-19T02:35:11.309Z,1.30
2019-01-19T02:38:29.381Z,1.20
2019-01-19T02:42:17.122Z,1.50
2019-01-19T02:45:56.670Z,1.20
2019-01-19T02:49:41.618Z,1.45
2019-01-19T02:53:18.666Z,1.30
2019-01-19T02:56:57.450Z,1.27
2019-01-19T03:00:49.194Z,1.20
2019-01-19T03:04:23.205Z,1.22
2019-01-19T03:07:57.137Z,1.10
2019-01-19T03:11:30.496Z,1.50
2019-01-19T03:15:12.022Z,1.20
2019-01-19T03:18:56.883Z,1.00
2019-01-19T03:22:32.286Z,1.10
2019-01-19T03:25:53.452Z,1.25
2019-01-19T03:29:35.819Z,1.10
2019-01-19T03:33:03.231Z,1.10
2019-01-19T03:36:45.790Z,1.10
2019-01-19T03:40:41.375Z,1.30
2019-01-19T03:44:08.496Z,1.35
2019-01-19T03:47:58.225Z,1.00
2019-01-19T03:51:14.554Z,1.42
2019-01-19T03:54:49.554Z,1.20
2019-01-19T03:58:32.186Z,1.10
2019-01-19T04:02:14.695Z,1.07
2019-01-19T04:05:40.326Z,1.25
2019-01-19T04:09:52.095Z,1.40
2019-01-19T04:13:33.070Z,1.17
2019-01-19T04:17:13.674Z,1.05
2019-01-19T04:20:55.931Z,1.00
2019-01-19T04:24:14.947Z,1.27
2019-01-19T04:27:20.838Z,1.17
2019-01-19T04:30:26.431Z,1.03
2019-01-19T04:33:32.086Z,1.15
2019-01-19T04:36:39.633Z,1.12
2019-01-19T04:39:45.260Z,1.20
2019-01-19T04:42:51.108Z,1.15
2019-01-19T04:45:56.775Z,1.30
2019-01-19T04:49:02.621Z,1.00
2019-01-19T04:52:08.250Z,1.20
2019-01-19T04:55:13.906Z,1.10
2019-01-19T04:58:19.587Z,1.30
2019-01-19T05:01:25.234Z,1.10
2019-01-19T05:04:30.890Z,1.25
2019-01-19T05:07:36.525Z,1.10
2019-01-19T05:10:42.169Z,1.00
2019-01-19T05:13:47.849Z,1.10
2019-01-19T05:16:53.524Z,1.10
2019-01-19T05:19:59.153Z,1.05
2019-01-19T05:23:04.787Z,0.90
2019-01-19T05:26:10.434Z,1.10
2019-01-19T05:29:16.217Z,1.07
2019-01-19T05:32:22.177Z,1.10
2019-01-19T05:35:27.826Z,1.00
2019-01-19T05:38:35.222Z,1.00
2019-01-19T05:41:41.779Z,1.12
2019-01-19T05:44:47.346Z,1.10
2019-01-19T05:47:52.994Z,1.07
2019-01-19T05:50:58.650Z,1.13
2019-01-19T05:54:04.578Z,1.10
2019-01-19T05:57:10.238Z,0.90
2019-01-19T06:00:21.909Z,1.20
2019-01-19T06:03:27.709Z,1.00
2019-01-19T06:06:33.365Z,1.10
2019-01-19T06:09:39.022Z,0.93
2019-01-19T06:12:44.740Z,1.13
2019-01-19T06:15:50.432Z,1.35
2019-01-19T06:18:56.374Z,1.40
2019-01-19T06:22:03.370Z,1.12
2019-01-19T06:25:10.043Z,1.12
2019-01-19T06:28:15.798Z,0.90
2019-01-19T06:31:23.158Z,1.17
2019-01-19T06:34:28.846Z,1.02
2019-01-19T06:37:34.471Z,1.10
2019-01-19T06:40:40.130Z,1.27
2019-01-19T06:43:45.808Z,1.65
2019-01-19T06:46:51.566Z,1.45
2019-01-19T06:49:57.219Z,1.23
2019-01-19T06:53:03.079Z,1.40
2019-01-19T06:56:08.690Z,1.70
2019-01-19T06:59:17.549Z,1.40
2019-01-19T07:02:21.769Z,1.50
2019-01-19T07:05:27.563Z,1.62
2019-01-19T07:08:33.175Z,1.80
2019-01-19T07:11:39.030Z,1.30
2019-01-19T07:14:44.661Z,1.40
2019-01-19T07:17:50.388Z,1.30
2019-01-19T07:20:55.990Z,1.50
2019-01-19T07:24:01.757Z,1.60
2019-01-19T07:27:07.375Z,1.50
2019-01-19T07:30:17.270Z,1.42
2019-01-19T07:33:22.914Z,1.42
2019-01-19T07:36:28.595Z,2.08
2019-01-19T07:39:34.181Z,2.20
2019-01-19T07:42:40.822Z,2.33
2019-01-19T07:45:46.434Z,2.52
2019-01-19T07:48:51.973Z,2.37
2019-01-19T07:51:57.744Z,2.08
2019-01-19T07:55:03.514Z,2.50
2019-01-19T07:58:09.154Z,2.45
2019-01-19T08:01:14.902Z,2.40
2019-01-19T08:04:20.530Z,2.90
2019-01-19T08:07:26.322Z,2.65
2019-01-19T08:10:31.972Z,2.35
2019-01-19T08:13:37.953Z,2.40
2019-01-19T08:16:43.577Z,2.17
2019-01-19T08:19:49.193Z,2.42
2019-01-19T08:22:54.941Z,2.33
2019-01-19T08:26:00.599Z,2.20
2019-01-19T08:29:06.226Z,2.12
2019-01-19T08:32:11.909Z,2.22
2019-01-19T08:35:18.461Z,2.10
2019-01-19T08:38:24.138Z,2.37
2019-01-19T08:41:29.758Z,2.17
2019-01-19T08:44:35.440Z,2.10
2019-01-19T08:47:41.086Z,2.40
2019-01-19T08:50:48.418Z,2.47
2019-01-19T08:53:54.006Z,2.12
2019-01-19T08:56:59.658Z,2.50
2019-01-19T09:00:07.283Z,2.02
2019-01-19T09:03:12.938Z,2.47
2019-01-19T09:06:18.794Z,2.22
2019-01-19T09:09:24.458Z,2.52
2019-01-19T09:12:30.072Z,2.35
2019-01-19T09:15:35.927Z,2.60
2019-01-19T09:18:41.691Z,3.05
2019-01-19T09:21:47.366Z,3.20
2019-01-19T09:24:53.018Z,2.75
2019-01-19T09:27:58.650Z,2.52
2019-01-19T09:31:04.322Z,2.95
2019-01-19T09:34:09.978Z,2.67
2019-01-19T09:37:15.629Z,2.60
2019-01-19T09:40:21.254Z,2.42
2019-01-19T09:43:26.906Z,2.70
2019-01-19T09:46:32.591Z,2.50
2019-01-19T09:49:38.237Z,2.27
2019-01-19T09:52:43.898Z,2.20
2019-01-19T09:55:49.515Z,2.40
2019-01-19T09:58:55.176Z,1.90
2019-01-19T10:02:00.851Z,2.02
2019-01-19T10:05:09.850Z,1.70
2019-01-19T10:08:15.510Z,2.40
2019-01-19T10:11:21.166Z,1.98
2019-01-19T10:14:26.846Z,1.98
2019-01-19T10:17:32.498Z,1.82
2019-01-19T10:20:38.214Z,2.17
2019-01-19T10:23:43.881Z,1.80
2019-01-19T10:26:49.661Z,2.50
2019-01-19T10:29:55.413Z,2.02
2019-01-19T10:33:01.173Z,1.82
2019-01-19T10:36:06.790Z,2.15
2019-01-19T10:39:12.450Z,1.90
2019-01-19T10:42:18.231Z,2.10
2019-01-19T10:45:25.723Z,2.00
2019-01-19T10:48:31.483Z,2.10
2019-01-19T10:51:37.133Z,1.90
2019-01-19T10:54:42.757Z,2.08
2019-01-19T10:57:48.574Z,2.27
2019-01-19T11:00:54.298Z,2.20
2019-01-19T11:04:01.504Z,2.33
2019-01-19T11:07:07.337Z,2.08
2019-01-19T11:10:15.969Z,2.15
2019-01-19T11:13:21.730Z,1.80
2019-01-19T11:16:27.415Z,2.20
2019-01-19T11:19:33.026Z,1.90
2019-01-19T11:22:38.709Z,1.70
2019-01-19T11:25:44.333Z,2.05
2019-01-19T11:28:50.979Z,1.92
2019-01-19T11:31:56.661Z,2.20
2019-01-19T11:35:02.669Z,2.20
2019-01-19T11:38:12.149Z,2.45
2019-01-19T11:41:15.602Z,2.35
2019-01-19T11:44:21.190Z,2.47
2019-01-19T11:47:27.880Z,2.17
2019-01-19T11:50:33.546Z,2.10
2019-01-19T11:53:39.214Z,2.27
2019-01-19T11:56:44.950Z,2.45
2019-01-19T11:59:50.721Z,1.80
2019-01-19T12:02:56.566Z,2.25
2019-01-19T12:06:03.798Z,2.10
2019-01-19T12:09:09.482Z,1.90
2019-01-19T12:12:15.278Z,2.15
2019-01-19T12:15:21.022Z,1.90
2019-01-19T12:18:27.609Z,1.85
2019-01-19T12:21:33.261Z,2.33
2019-01-19T12:24:38.798Z,2.20
2019-01-19T12:27:44.418Z,2.30
2019-01-19T12:30:51.487Z,2.00
2019-01-19T12:33:57.299Z,1.87
2019-01-19T12:37:03.806Z,2.05
2019-01-19T12:40:10.922Z,2.10
2019-01-19T12:43:21.488Z,1.95
2019-01-19T12:46:27.174Z,2.35
2019-01-19T12:49:32.976Z,2.00
2019-01-19T12:52:40.154Z,2.15
2019-01-19T12:55:47.444Z,1.77
2019-01-19T12:58:53.070Z,1.50
2019-01-19T13:01:58.718Z,1.32
2019-01-19T13:05:04.879Z,1.70
2019-01-19T13:08:12.757Z,1.60
2019-01-19T13:11:46.914Z,1.57
2019-01-19T13:15:32.224Z,1.95
2019-01-19T13:19:04.943Z,1.50
2019-01-19T13:22:56.102Z,1.67
2019-01-19T13:26:23.558Z,1.72
2019-01-19T13:30:16.494Z,1.42
2019-01-19T13:33:56.995Z,1.57
2019-01-19T13:37:58.214Z,1.80
2019-01-19T13:41:47.438Z,1.40
2019-01-19T13:45:19.091Z,1.47
2019-01-19T13:49:01.194Z,1.90
2019-01-19T13:52:59.750Z,1.60
2019-01-19T13:56:46.606Z,1.70
2019-01-19T14:00:23.081Z,2.00
2019-01-19T14:03:57.538Z,2.10
2019-01-19T14:07:49.755Z,2.08
2019-01-19T14:11:45.065Z,2.17
2019-01-19T14:15:26.294Z,2.10
2019-01-19T14:18:52.878Z,2.20
2019-01-19T14:22:53.650Z,1.85
2019-01-19T14:26:33.605Z,1.95
2019-01-19T14:30:18.996Z,2.02
2019-01-19T14:33:57.270Z,2.27
2019-01-19T14:37:34.815Z,2.40
2019-01-19T14:41:22.974Z,1.87
2019-01-19T14:45:30.869Z,2.20
2019-01-19T14:49:11.405Z,2.12
2019-01-19T14:52:58.222Z,2.17
2019-01-19T14:56:55.895Z,2.55
2019-01-19T15:00:56.539Z,3.00
2019-01-19T15:04:53.697Z,2.98
2019-01-19T15:08:53.117Z,2.95
2019-01-19T15:12:45.422Z,2.85
2019-01-19T15:16:30.335Z,3.52
2019-01-19T15:20:19.675Z,3.15
2019-01-19T15:24:11.178Z,3.02
2019-01-19T15:28:15.878Z,3.30
2019-01-19T15:31:35.459Z,3.40
2019-01-19T15:35:28.010Z,3.35
2019-01-19T15:39:11.012Z,3.35
2019-01-19T15:42:48.538Z,3.30
2019-01-19T15:46:17.538Z,2.85
2019-01-19T15:50:14.191Z,3.62
2019-01-19T15:53:32.946Z,3.20
2019-01-19T15:57:16.835Z,3.47
2019-01-19T16:01:03.397Z,2.90
2019-01-19T16:05:08.142Z,3.35
2019-01-19T16:08:23.224Z,3.67
2019-01-19T16:11:44.945Z,3.60
2019-01-19T16:15:16.401Z,3.35
2019-01-19T16:18:36.249Z,3.50
2019-01-19T16:22:23.882Z,3.70
2019-01-19T16:26:04.353Z,3.92
2019-01-19T16:29:20.687Z,4.10
2019-01-19T16:32:42.942Z,4.60
2019-01-19T16:36:38.611Z,4.40
2019-01-19T16:40:33.777Z,4.47
2019-01-19T16:44:04.594Z,4.87
2019-01-19T16:47:40.454Z,4.78
2019-01-19T16:51:30.003Z,4.80
2019-01-19T16:54:54.455Z,4.72
2019-01-19T16:58:41.077Z,4.53
2019-01-19T17:02:30.553Z,4.20
2019-01-19T17:05:55.538Z,4.55
2019-01-19T17:09:33.077Z,4.47
2019-01-19T17:13:02.575Z,6.08
2019-01-19T17:16:23.374Z,5.35
2019-01-19T17:20:25.014Z,4.50
2019-01-19T17:24:03.780Z,3.72
2019-01-19T17:27:49.090Z,4.12
2019-01-19T17:31:26.770Z,4.10
2019-01-19T17:35:01.186Z,4.47
2019-01-19T17:38:16.362Z,3.95
2019-01-19T17:42:18.130Z,4.17
2019-01-19T17:45:37.914Z,4.08
2019-01-19T17:49:32.323Z,4.28
2019-01-19T17:53:15.751Z,4.28
2019-01-19T17:57:01.248Z,4.45
2019-01-19T18:00:39.559Z,4.50
2019-01-19T18:04:02.926Z,4.12
2019-01-19T18:07:45.131Z,4.35
2019-01-19T18:11:27.342Z,4.10
2019-01-19T18:15:15.798Z,4.70
2019-01-19T18:19:17.469Z,3.90
2019-01-19T18:22:46.766Z,4.03
2019-01-19T18:26:39.224Z,4.53
2019-01-19T18:30:21.757Z,4.30
2019-01-19T18:33:48.389Z,4.12
2019-01-19T18:37:39.605Z,4.40
2019-01-19T18:41:56.868Z,4.08
2019-01-19T18:45:47.036Z,4.08
2019-01-19T18:49:20.059Z,4.40
2019-01-19T18:53:05.213Z,4.45
2019-01-19T18:56:53.469Z,4.55
2019-01-19T19:00:10.106Z,4.20
2019-01-19T19:04:01.325Z,4.25
2019-01-19T19:07:19.946Z,4.62
2019-01-19T19:11:10.319Z,4.72
2019-01-19T19:15:19.554Z,4.60
2019-01-19T19:19:11.021Z,4.70
2019-01-19T19:23:00.636Z,4.70
2019-01-19T19:26:37.685Z,4.25
2019-01-19T19:30:08.533Z,4.58
2019-01-19T19:33:54.538Z,4.65
2019-01-19T19:37:17.370Z,4.60
2019-01-19T19:41:03.182Z,4.45
2019-01-19T19:44:51.914Z,5.30
2019-01-19T19:48:14.290Z,6.30
2019-01-19T19:51:57.563Z,6.00
2019-01-19T19:55:01.438Z,6.25
2019-01-19T19:58:07.097Z,6.78
2019-01-19T20:01:12.776Z,5.78
2019-01-19T20:04:18.645Z,6.55
2019-01-19T20:07:24.355Z,6.53
2019-01-19T20:10:30.225Z,5.90
2019-01-19T20:13:35.865Z,5.42
2019-01-19T20:16:41.523Z,6.05
2019-01-19T20:19:47.223Z,6.00
2019-01-19T20:22:52.878Z,5.62
2019-01-19T20:25:58.527Z,5.92
2019-01-19T20:29:04.287Z,6.17
2019-01-19T20:32:10.146Z,6.45
2019-01-19T20:35:16.015Z,7.08
2019-01-19T20:38:21.657Z,6.33
2019-01-19T20:41:29.077Z,5.80
2019-01-19T20:44:34.678Z,9.23
2019-01-19T20:47:40.242Z,5.67
2019-01-19T20:50:45.899Z,5.97
2019-01-19T20:53:51.435Z,9.38
2019-01-19T20:56:57.107Z,6.40
2019-01-19T21:00:03.437Z,6.20
2019-01-19T21:03:09.205Z,6.03
2019-01-19T21:06:14.986Z,10.55
2019-01-19T21:09:20.610Z,14.90
2019-01-19T21:12:26.399Z,9.33
2019-01-19T21:15:32.047Z,7.97
2019-01-19T21:18:37.776Z,8.50
2019-01-19T21:21:44.850Z,7.53
2019-01-19T21:24:50.659Z,7.47
2019-01-19T21:27:56.290Z,7.03
2019-01-19T21:31:03.128Z,7.25
2019-01-19T21:34:08.829Z,6.62
2019-01-19T21:37:14.498Z,6.83
2019-01-19T21:40:20.250Z,7.42
2019-01-19T21:43:25.902Z,6.80
2019-01-19T21:46:31.614Z,7.83
2019-01-19T21:49:37.191Z,7.70
2019-01-19T21:52:42.918Z,7.78
2019-01-19T21:55:48.671Z,7.20
2019-01-19T21:58:54.358Z,7.70
2019-01-19T22:02:00.011Z,7.25
2019-01-19T22:05:06.286Z,7.17
2019-01-19T22:08:11.906Z,7.30
2019-01-19T22:11:17.555Z,7.42
2019-01-19T22:14:23.405Z,7.65
2019-01-19T22:17:29.602Z,7.12
2019-01-19T22:20:35.101Z,7.97
2019-01-19T22:23:40.806Z,7.17
2019-01-19T22:26:49.540Z,7.58
2019-01-19T22:29:55.258Z,7.53
2019-01-19T22:33:01.246Z,8.13
2019-01-19T22:36:08.266Z,7.47
2019-01-19T22:39:13.907Z,7.70
2019-01-19T22:42:19.550Z,7.45
2019-01-19T22:45:26.278Z,7.45
2019-01-19T22:48:32.105Z,7.40
2019-01-19T22:51:37.789Z,7.30
2019-01-19T22:54:43.621Z,7.60
2019-01-19T22:57:49.330Z,7.65
2019-01-19T23:01:22.109Z,7.90
2019-01-19T23:04:27.775Z,7.95
2019-01-19T23:07:33.556Z,7.92
2019-01-19T23:10:39.183Z,6.97
2019-01-19T23:13:44.889Z,7.87
2019-01-19T23:16:50.586Z,7.60
2019-01-19T23:19:56.358Z,8.18
2019-01-19T23:23:03.802Z,6.25
2019-01-19T23:26:12.817Z,7.00
2019-01-19T23:29:18.374Z,7.22
2019-01-19T23:32:24.314Z,6.85
2019-01-19T23:35:30.038Z,7.37
2019-01-19T23:38:35.717Z,8.00
2019-01-19T23:41:41.343Z,7.10
2019-01-19T23:44:47.033Z,7.20
2019-01-19T23:47:52.645Z,6.55
2019-01-19T23:50:58.312Z,7.60
2019-01-19T23:54:04.238Z,7.30
2019-01-19T23:57:09.769Z,7.65
